createdAt,value
2023-01-25T00:00:30.872Z,18.33
2023-01-25T00:02:58.468Z,16.43
2023-01-25T00:05:26.036Z,15.97
2023-01-25T00:07:53.592Z,17.03
2023-01-25T00:10:24.158Z,18.83
2023-01-25T00:12:51.626Z,17.20
2023-01-25T00:15:19.109Z,15.83
2023-01-25T00:17:46.537Z,17.83
2023-01-25T00:20:14.224Z,14.63
2023-01-25T00:22:41.847Z,16.33
2023-01-25T00:25:09.879Z,16.53
2023-01-25T00:27:37.542Z,14.73
2023-01-25T00:30:05.304Z,15.23
2023-01-25T00:33:01.870Z,15.67
2023-01-25T00:35:32.753Z,15.47
2023-01-25T00:38:02.411Z,16.60
2023-01-25T00:40:29.953Z,15.80
2023-01-25T00:43:00.873Z,15.03
2023-01-25T00:45:28.491Z,15.83
2023-01-25T00:47:56.939Z,14.50
2023-01-25T00:50:25.421Z,14.30
2023-01-25T00:52:52.899Z,15.23
2023-01-25T00:55:20.421Z,16.60
2023-01-25T00:57:49.653Z,15.20
2023-01-25T01:00:17.342Z,16.70
2023-01-25T01:02:44.809Z,14.53
2023-01-25T01:05:12.595Z,16.17
2023-01-25T01:07:40.546Z,16.53
2023-01-25T01:10:08.320Z,16.13
2023-01-25T01:12:35.834Z,17.67
2023-01-25T01:15:03.310Z,13.20
2023-01-25T01:17:30.816Z,15.97
2023-01-25T01:19:58.279Z,15.40
2023-01-25T01:22:25.791Z,15.73
2023-01-25T01:24:53.264Z,15.37
2023-01-25T01:27:20.820Z,14.73
2023-01-25T01:29:48.307Z,16.33
2023-01-25T01:32:15.967Z,15.83
2023-01-25T01:34:44.566Z,14.43
2023-01-25T01:37:13.081Z,15.63
2023-01-25T01:39:41.486Z,15.80
2023-01-25T01:42:09.071Z,17.57
2023-01-25T01:44:56.164Z,14.87
2023-01-25T01:47:32.626Z,16.27
2023-01-25T01:50:07.349Z,16.83
2023-01-25T01:52:37.527Z,15.77
2023-01-25T01:55:05.245Z,16.27
2023-01-25T01:57:36.905Z,15.53
2023-01-25T02:00:39.998Z,16.43
2023-01-25T02:03:07.917Z,15.00
2023-01-25T02:05:40.747Z,15.00
2023-01-25T02:08:10.381Z,16.33
2023-01-25T02:10:39.140Z,16.13
2023-01-25T02:13:06.973Z,19.23
2023-01-25T02:15:39.550Z,15.80
2023-01-25T02:18:07.322Z,15.07
2023-01-25T02:20:39.439Z,15.40
2023-01-25T02:23:27.735Z,15.50
2023-01-25T02:25:56.268Z,15.00
2023-01-25T02:28:28.941Z,15.40
2023-01-25T02:30:56.494Z,17.43
2023-01-25T02:33:25.625Z,18.30
2023-01-25T02:36:08.374Z,14.43
2023-01-25T02:38:37.563Z,15.60
2023-01-25T02:41:11.824Z,15.83
2023-01-25T02:43:41.146Z,17.07
2023-01-25T02:46:12.873Z,16.50
2023-01-25T02:48:44.234Z,13.70
2023-01-25T02:51:12.362Z,18.10
2023-01-25T02:53:40.987Z,15.20
2023-01-25T02:56:08.714Z,15.33
2023-01-25T02:58:36.649Z,16.57
2023-01-25T03:01:04.245Z,15.73
2023-01-25T03:03:32.140Z,15.50
2023-01-25T03:05:59.664Z,16.97
2023-01-25T03:08:27.124Z,14.93
2023-01-25T03:10:59.033Z,16.93
2023-01-25T03:13:27.547Z,14.70
2023-01-25T03:16:00.106Z,17.27
2023-01-25T03:18:27.803Z,17.03
2023-01-25T03:20:55.373Z,15.77
2023-01-25T03:23:23.205Z,15.57
2023-01-25T03:25:51.788Z,14.37
2023-01-25T03:28:19.757Z,16.10
2023-01-25T03:30:53.312Z,15.60
2023-01-25T03:33:21.596Z,16.90
2023-01-25T03:35:52.977Z,15.43
2023-01-25T03:38:23.386Z,14.90
2023-01-25T03:40:51.142Z,16.00
2023-01-25T03:43:18.765Z,14.40
2023-01-25T03:45:53.734Z,25.80
2023-01-25T03:48:21.680Z,15.07
2023-01-25T03:50:50.509Z,15.37
2023-01-25T03:53:27.583Z,16.87
2023-01-25T03:55:56.614Z,14.77
2023-01-25T03:58:24.735Z,15.77
2023-01-25T04:00:52.520Z,15.47
2023-01-25T04:03:21.678Z,16.17
2023-01-25T04:05:49.377Z,14.67
2023-01-25T04:08:17.327Z,15.50
2023-01-25T04:10:45.732Z,13.77
2023-01-25T04:13:14.664Z,14.73
2023-01-25T04:15:42.122Z,13.67
2023-01-25T04:18:18.946Z,13.90
2023-01-25T04:20:46.886Z,14.40
2023-01-25T04:23:14.698Z,14.10
2023-01-25T04:25:43.720Z,14.43
2023-01-25T04:28:15.630Z,13.90
2023-01-25T04:30:43.296Z,14.40
2023-01-25T04:33:12.009Z,15.00
2023-01-25T04:35:40.256Z,13.20
2023-01-25T04:38:10.792Z,13.20
2023-01-25T04:40:41.434Z,14.67
2023-01-25T04:43:08.987Z,13.03
2023-01-25T04:45:36.777Z,14.60
2023-01-25T04:48:12.874Z,13.83
2023-01-25T04:50:49.179Z,15.90
2023-01-25T04:53:20.349Z,15.60
2023-01-25T04:59:47.502Z,14.53
2023-01-25T05:02:15.498Z,15.47
2023-01-25T05:04:43.062Z,12.23
2023-01-25T05:07:10.654Z,14.40
2023-01-25T05:09:38.260Z,13.07
2023-01-25T05:12:11.786Z,14.60
2023-01-25T05:14:59.756Z,14.33
2023-01-25T05:17:27.953Z,12.60
2023-01-25T05:19:56.332Z,13.27
2023-01-25T05:22:24.697Z,12.47
2023-01-25T05:24:54.018Z,12.70
2023-01-25T05:27:22.484Z,13.90
2023-01-25T05:29:52.452Z,14.13
2023-01-25T05:32:22.966Z,13.43
2023-01-25T05:34:50.819Z,14.70
2023-01-25T05:37:20.634Z,13.83
2023-01-25T05:39:54.437Z,13.57
2023-01-25T05:42:21.960Z,15.63
2023-01-25T05:44:49.585Z,14.27
2023-01-25T05:47:18.745Z,14.50
2023-01-25T05:49:46.282Z,14.03
2023-01-25T05:52:21.517Z,13.70
2023-01-25T05:54:49.749Z,14.00
2023-01-25T05:57:18.154Z,12.47
2023-01-25T05:59:46.142Z,14.43
2023-01-25T06:02:17.062Z,12.73
2023-01-25T06:04:45.344Z,12.83
2023-01-25T06:07:14.055Z,13.53
2023-01-25T06:09:42.908Z,13.83
2023-01-25T06:12:10.855Z,13.60
2023-01-25T06:14:38.366Z,14.20
2023-01-25T06:17:05.861Z,14.00
2023-01-25T06:20:08.730Z,14.13
2023-01-25T06:22:36.883Z,13.83
2023-01-25T06:25:04.447Z,15.90
2023-01-25T06:27:31.898Z,14.30
2023-01-25T06:29:59.413Z,15.50
2023-01-25T06:32:27.365Z,13.60
2023-01-25T06:34:54.818Z,15.40
2023-01-25T06:37:24.824Z,13.77
2023-01-25T06:39:52.342Z,12.77
2023-01-25T06:42:19.918Z,13.57
2023-01-25T06:44:47.362Z,12.87
2023-01-25T06:47:14.794Z,15.10
2023-01-25T06:49:42.421Z,13.33
2023-01-25T06:52:09.926Z,14.87
2023-01-25T06:54:37.485Z,14.00
2023-01-25T06:57:07.213Z,14.13
2023-01-25T06:59:34.615Z,14.77
2023-01-25T07:02:02.186Z,13.47
2023-01-25T07:04:29.653Z,12.20
2023-01-25T07:06:57.157Z,14.53
2023-01-25T07:09:24.728Z,13.30
2023-01-25T07:11:52.364Z,13.90
2023-01-25T07:14:19.848Z,14.40
2023-01-25T07:16:47.307Z,14.03
2023-01-25T07:19:14.922Z,13.47
2023-01-25T07:21:42.751Z,14.43
2023-01-25T07:24:14.182Z,12.90
2023-01-25T07:26:41.732Z,13.30
2023-01-25T07:29:12.261Z,13.10
2023-01-25T07:31:39.906Z,13.40
2023-01-25T07:34:07.591Z,15.90
2023-01-25T07:36:35.070Z,14.27
2023-01-25T07:39:02.547Z,14.77
2023-01-25T07:41:30.103Z,12.47
2023-01-25T07:43:57.556Z,12.97
2023-01-25T07:46:34.223Z,15.10
2023-01-25T07:49:01.763Z,13.33
2023-01-25T07:51:31.067Z,14.43
2023-01-25T07:54:03.299Z,15.20
2023-01-25T07:56:32.688Z,13.93
2023-01-25T07:59:02.611Z,14.40
2023-01-25T08:01:35.146Z,13.10
2023-01-25T08:04:03.252Z,13.50
2023-01-25T08:06:35.550Z,14.10
2023-01-25T08:09:05.189Z,15.67
2023-01-25T08:11:33.009Z,16.50
2023-01-25T08:14:02.139Z,16.43
2023-01-25T08:16:30.309Z,16.33
2023-01-25T08:18:59.019Z,17.20
2023-01-25T08:21:29.231Z,14.53
2023-01-25T08:24:00.507Z,14.20
2023-01-25T08:26:29.091Z,13.33
2023-01-25T08:28:57.149Z,15.17
2023-01-25T08:31:26.483Z,14.67
2023-01-25T08:33:54.256Z,15.10
2023-01-25T08:36:24.233Z,15.07
2023-01-25T08:38:56.040Z,16.13
2023-01-25T08:41:23.981Z,14.73
2023-01-25T08:43:54.579Z,15.53
2023-01-25T08:46:23.169Z,12.97
2023-01-25T08:48:54.176Z,13.83
2023-01-25T08:51:21.960Z,14.50
2023-01-25T08:53:51.771Z,14.63
2023-01-25T08:56:19.331Z,14.43
2023-01-25T08:58:47.274Z,15.20
2023-01-25T09:01:16.428Z,14.90
2023-01-25T09:03:44.885Z,14.60
2023-01-25T09:06:15.189Z,16.83
2023-01-25T09:08:42.713Z,14.60
2023-01-25T09:11:11.476Z,13.47
2023-01-25T09:13:39.040Z,14.60
2023-01-25T09:16:08.245Z,13.97
2023-01-25T09:18:37.066Z,17.93
2023-01-25T09:21:08.159Z,15.23
2023-01-25T09:23:50.333Z,13.20
2023-01-25T09:26:18.615Z,15.43
2023-01-25T09:28:50.061Z,13.57
2023-01-25T09:31:22.878Z,16.23
2023-01-25T09:34:09.608Z,14.70
2023-01-25T09:36:37.257Z,15.47
2023-01-25T09:39:05.154Z,16.53
2023-01-25T09:41:32.610Z,14.77
2023-01-25T09:44:18.624Z,14.57
2023-01-25T09:46:56.965Z,15.90
2023-01-25T09:49:24.399Z,13.90
2023-01-25T09:52:04.121Z,18.10
2023-01-25T09:54:42.384Z,15.07
2023-01-25T09:57:16.869Z,15.37
2023-01-25T09:59:46.300Z,14.37
2023-01-25T10:02:29.279Z,15.77
2023-01-25T10:04:58.172Z,13.80
2023-01-25T10:07:51.667Z,14.50
2023-01-25T10:10:22.324Z,15.73
2023-01-25T10:12:52.086Z,17.77
2023-01-25T10:15:20.690Z,14.47
2023-01-25T10:17:58.298Z,16.00
2023-01-25T10:20:33.247Z,15.77
2023-01-25T10:23:09.084Z,14.40
2023-01-25T10:25:43.653Z,15.43
2023-01-25T10:28:30.301Z,14.63
2023-01-25T10:31:01.132Z,14.70
2023-01-25T10:33:29.355Z,15.27
2023-01-25T10:35:58.556Z,15.27
2023-01-25T10:38:29.040Z,19.07
2023-01-25T10:40:59.524Z,20.30
2023-01-25T10:43:27.014Z,15.83
2023-01-25T10:45:54.473Z,16.77
2023-01-25T10:48:23.876Z,15.97
2023-01-25T10:50:52.993Z,14.90
2023-01-25T10:53:34.176Z,18.47
2023-01-25T10:56:25.400Z,15.57
2023-01-25T10:58:56.810Z,17.73
2023-01-25T11:01:31.572Z,17.83
2023-01-25T11:03:59.498Z,14.67
2023-01-25T11:06:35.132Z,15.23
2023-01-25T11:09:22.597Z,14.57
2023-01-25T11:11:57.547Z,14.20
2023-01-25T11:14:28.856Z,15.63
2023-01-25T11:16:57.041Z,14.37
2023-01-25T11:19:24.398Z,17.20
2023-01-25T11:21:52.970Z,15.57
2023-01-25T11:24:20.550Z,16.57
2023-01-25T11:26:50.357Z,17.80
2023-01-25T11:29:19.644Z,17.23
2023-01-25T11:31:48.531Z,19.03
2023-01-25T11:34:18.957Z,15.70
2023-01-25T11:36:49.556Z,17.10
2023-01-25T11:39:20.134Z,18.53
2023-01-25T11:42:04.425Z,18.63
2023-01-25T11:44:50.725Z,17.77
2023-01-25T11:47:39.209Z,17.47
2023-01-25T11:50:12.877Z,18.00
2023-01-25T11:52:43.389Z,17.60
2023-01-25T11:55:20.923Z,17.97
2023-01-25T11:58:08.702Z,15.43
2023-01-25T12:00:38.893Z,14.13
2023-01-25T12:03:06.428Z,18.63
2023-01-25T12:05:44.773Z,16.73
2023-01-25T12:08:12.222Z,16.33
2023-01-25T12:10:54.569Z,15.33
2023-01-25T12:13:36.666Z,17.43
2023-01-25T12:16:36.606Z,17.37
2023-01-25T12:19:07.790Z,18.40
2023-01-25T12:21:35.188Z,16.77
2023-01-25T12:24:18.178Z,15.83
2023-01-25T12:26:59.534Z,15.93
2023-01-25T12:29:47.305Z,17.20
2023-01-25T12:32:17.742Z,16.73
2023-01-25T12:34:49.145Z,16.10
2023-01-25T12:37:16.562Z,17.17
2023-01-25T12:39:56.891Z,16.27
2023-01-25T12:42:35.955Z,15.67
2023-01-25T12:45:11.560Z,16.83
2023-01-25T12:47:41.486Z,16.27
2023-01-25T12:50:18.230Z,15.33
2023-01-25T12:52:51.834Z,16.77
2023-01-25T12:55:19.835Z,16.53
2023-01-25T12:57:50.302Z,14.30
2023-01-25T13:00:23.681Z,15.23
2023-01-25T13:02:51.117Z,18.70
2023-01-25T13:05:37.827Z,15.90
2023-01-25T13:08:15.858Z,18.10
2023-01-25T13:10:53.360Z,17.13
2023-01-25T13:13:23.898Z,18.10
2023-01-25T13:15:51.412Z,19.50
2023-01-25T13:18:31.632Z,15.97
2023-01-25T13:21:00.239Z,18.30
2023-01-25T13:23:27.650Z,16.57
2023-01-25T13:26:15.134Z,16.90
2023-01-25T13:28:45.161Z,17.57
2023-01-25T13:31:46.399Z,16.00
2023-01-25T13:34:36.479Z,16.77
2023-01-25T13:37:17.842Z,18.10
2023-01-25T13:39:46.854Z,19.07
2023-01-25T13:42:14.373Z,17.40
2023-01-25T13:44:44.237Z,17.20
2023-01-25T13:47:16.227Z,16.90
2023-01-25T13:49:45.699Z,16.63
2023-01-25T13:52:20.806Z,17.23
2023-01-25T13:54:49.450Z,15.70
2023-01-25T13:57:22.915Z,15.97
2023-01-25T14:00:02.085Z,18.30
2023-01-25T14:02:33.790Z,15.60
2023-01-25T14:05:02.304Z,19.07
2023-01-25T14:07:37.018Z,15.77
2023-01-25T14:10:11.808Z,19.07
2023-01-25T14:12:43.655Z,17.30
2023-01-25T14:15:31.342Z,17.07
2023-01-25T14:18:20.380Z,18.37
2023-01-25T14:20:48.770Z,16.43
2023-01-25T14:23:31.274Z,16.37
2023-01-25T14:26:00.139Z,16.37
2023-01-25T14:28:29.449Z,16.33
2023-01-25T14:30:58.319Z,18.70
2023-01-25T14:33:30.264Z,16.03
2023-01-25T14:36:16.083Z,15.03
2023-01-25T14:38:52.200Z,19.57
2023-01-25T14:41:37.179Z,18.43
2023-01-25T14:44:10.701Z,20.17
2023-01-25T14:46:41.301Z,18.30
2023-01-25T14:49:08.844Z,16.93
2023-01-25T14:51:42.138Z,19.43
2023-01-25T14:54:29.487Z,21.10
2023-01-25T14:57:01.496Z,18.63
2023-01-25T14:59:39.928Z,19.97
2023-01-25T15:02:22.703Z,18.60
2023-01-25T15:04:55.098Z,19.43
2023-01-25T15:07:34.945Z,18.17
2023-01-25T15:10:15.798Z,20.60
2023-01-25T15:12:43.559Z,18.07
2023-01-25T15:15:21.738Z,20.90
2023-01-25T15:17:50.956Z,21.63
2023-01-25T15:20:24.548Z,19.07
2023-01-25T15:22:52.108Z,18.83
2023-01-25T15:25:24.252Z,20.33
2023-01-25T15:27:52.040Z,18.07
2023-01-25T15:30:20.242Z,20.03
2023-01-25T15:32:48.265Z,18.97
2023-01-25T15:35:16.650Z,18.77
2023-01-25T15:37:44.117Z,19.93
2023-01-25T15:40:14.070Z,19.53
2023-01-25T15:42:41.636Z,20.57
2023-01-25T15:45:09.561Z,19.27
2023-01-25T15:47:37.656Z,20.43
2023-01-25T15:50:06.032Z,20.20
2023-01-25T15:52:35.982Z,20.07
2023-01-25T15:55:03.496Z,23.27
2023-01-25T15:57:32.436Z,21.17
2023-01-25T16:00:02.092Z,19.30
2023-01-25T16:02:31.900Z,20.37
2023-01-25T16:04:59.360Z,21.10
2023-01-25T16:07:28.119Z,21.73
2023-01-25T16:09:55.635Z,30.10
2023-01-25T16:12:25.355Z,28.17
2023-01-25T16:14:52.913Z,24.63
2023-01-25T16:17:21.939Z,22.03
2023-01-25T16:19:49.665Z,21.53
2023-01-25T16:22:18.058Z,20.50
2023-01-25T16:24:46.004Z,19.50
2023-01-25T16:27:20.403Z,22.23
2023-01-25T16:29:48.155Z,21.60
2023-01-25T16:32:15.590Z,21.23
2023-01-25T16:34:43.121Z,22.10
2023-01-25T16:37:17.392Z,20.33
2023-01-25T16:39:45.280Z,20.13
2023-01-25T16:42:12.898Z,18.87
2023-01-25T16:44:40.386Z,20.70
2023-01-25T16:47:14.511Z,20.53
2023-01-25T16:49:41.958Z,21.07
2023-01-25T16:52:12.523Z,22.80
2023-01-25T16:54:40.056Z,22.13
2023-01-25T16:57:19.961Z,22.20
2023-01-25T16:59:48.108Z,21.43
2023-01-25T17:02:15.581Z,19.67
2023-01-25T17:04:45.261Z,18.10
2023-01-25T17:07:13.863Z,20.57
2023-01-25T17:09:41.429Z,20.77
2023-01-25T17:12:09.370Z,20.63
2023-01-25T17:14:38.488Z,22.47
2023-01-25T17:17:07.240Z,21.57
2023-01-25T17:19:36.219Z,22.73
2023-01-25T17:22:04.234Z,23.73
2023-01-25T17:24:31.718Z,21.90
2023-01-25T17:27:01.140Z,19.03
2023-01-25T17:29:32.044Z,24.90
2023-01-25T17:31:59.926Z,24.23
2023-01-25T17:34:27.469Z,25.13
2023-01-25T17:36:55.152Z,23.50
2023-01-25T17:39:23.218Z,22.17
2023-01-25T17:41:51.427Z,24.97
2023-01-25T17:44:21.590Z,22.23
2023-01-25T17:46:49.297Z,20.23
2023-01-25T17:49:17.374Z,21.77
2023-01-25T17:51:45.605Z,19.90
2023-01-25T17:54:13.500Z,25.53
2023-01-25T17:56:41.201Z,22.37
2023-01-25T17:59:11.473Z,24.07
2023-01-25T18:01:39.585Z,21.10
2023-01-25T18:04:08.317Z,22.30
2023-01-25T18:06:38.883Z,20.77
2023-01-25T18:09:06.933Z,22.13
2023-01-25T18:11:45.139Z,21.70
2023-01-25T18:14:15.312Z,22.60
2023-01-25T18:16:43.118Z,23.83
2023-01-25T18:19:12.824Z,22.83
2023-01-25T18:21:42.153Z,20.93
2023-01-25T18:24:12.524Z,22.90
2023-01-25T18:26:40.982Z,21.03
2023-01-25T18:29:11.481Z,20.30
2023-01-25T18:31:39.090Z,20.77
2023-01-25T18:34:09.022Z,21.10
2023-01-25T18:36:36.528Z,19.23
2023-01-25T18:39:06.808Z,21.37
2023-01-25T18:41:36.547Z,21.43
2023-01-25T18:44:03.991Z,23.90
2023-01-25T18:46:31.803Z,20.30
2023-01-25T18:49:01.475Z,21.97
2023-01-25T18:51:29.512Z,21.43
2023-01-25T18:53:57.016Z,19.97
2023-01-25T18:56:25.682Z,19.70
2023-01-25T18:58:58.321Z,18.47
2023-01-25T19:01:25.812Z,21.20
2023-01-25T19:03:53.419Z,20.50
2023-01-25T19:06:21.131Z,19.90
2023-01-25T19:08:54.348Z,21.83
2023-01-25T19:11:27.649Z,21.40
2023-01-25T19:13:55.130Z,21.43
2023-01-25T19:16:26.951Z,18.90
2023-01-25T19:18:55.201Z,22.93
2023-01-25T19:21:26.931Z,23.97
2023-01-25T19:23:56.724Z,22.93
2023-01-25T19:26:25.577Z,20.87
2023-01-25T19:28:53.480Z,23.37
2023-01-25T19:31:24.754Z,20.50
2023-01-25T19:33:56.452Z,19.77
2023-01-25T19:36:24.057Z,20.80
2023-01-25T19:38:51.736Z,21.50
2023-01-25T19:41:20.422Z,22.37
2023-01-25T19:43:48.424Z,21.10
2023-01-25T19:46:16.161Z,21.80
2023-01-25T19:48:44.228Z,18.73
2023-01-25T19:51:12.987Z,20.40
2023-01-25T19:53:46.786Z,21.80
2023-01-25T19:56:16.196Z,22.27
2023-01-25T19:58:44.570Z,21.37
2023-01-25T20:01:13.339Z,21.83
2023-01-25T20:03:40.982Z,20.73
2023-01-25T20:06:09.146Z,20.47
2023-01-25T20:08:41.170Z,22.17
2023-01-25T20:11:10.686Z,22.00
2023-01-25T20:13:38.462Z,22.37
2023-01-25T20:16:06.508Z,21.93
2023-01-25T20:18:34.298Z,22.50
2023-01-25T20:21:04.614Z,22.57
2023-01-25T20:23:36.189Z,23.80
2023-01-25T20:26:05.690Z,24.07
2023-01-25T20:28:33.951Z,22.67
2023-01-25T20:31:04.203Z,23.90
2023-01-25T20:33:32.577Z,23.53
2023-01-25T20:36:03.282Z,26.63
2023-01-25T20:38:34.806Z,24.97
2023-01-25T20:41:02.683Z,22.73
2023-01-25T20:43:31.435Z,22.43
2023-01-25T20:46:00.052Z,23.80
2023-01-25T20:48:28.541Z,22.27
2023-01-25T20:51:02.948Z,23.03
2023-01-25T20:53:30.625Z,21.47
2023-01-25T20:55:58.689Z,21.73
2023-01-25T20:58:26.493Z,22.17
2023-01-25T21:00:54.415Z,24.93
2023-01-25T21:03:22.552Z,23.80
2023-01-25T21:05:50.951Z,23.87
2023-01-25T21:08:19.068Z,21.57
2023-01-25T21:10:56.995Z,22.77
2023-01-25T21:13:24.827Z,23.67
2023-01-25T21:16:02.430Z,23.70
2023-01-25T21:18:34.351Z,25.33
2023-01-25T21:21:06.296Z,26.07
2023-01-25T21:23:34.352Z,25.40
2023-01-25T21:26:02.718Z,24.83
2023-01-25T21:28:30.740Z,22.57
2023-01-25T21:30:58.230Z,24.27
2023-01-25T21:33:25.753Z,23.67
2023-01-25T21:35:54.948Z,24.93
2023-01-25T21:38:22.514Z,25.53
2023-01-25T21:40:49.932Z,23.83
2023-01-25T21:43:18.061Z,24.50
2023-01-25T21:46:04.154Z,25.73
2023-01-25T21:48:50.464Z,21.97
2023-01-25T21:51:36.523Z,25.10
2023-01-25T21:54:04.919Z,25.40
2023-01-25T21:56:32.406Z,24.27
2023-01-25T21:58:59.903Z,26.70
2023-01-25T22:01:27.383Z,22.70
2023-01-25T22:03:54.953Z,25.43
2023-01-25T22:06:22.411Z,26.20
2023-01-25T22:08:49.950Z,25.17
2023-01-25T22:11:17.486Z,24.80
2023-01-25T22:13:44.913Z,28.47
2023-01-25T22:16:12.795Z,28.80
2023-01-25T22:18:41.347Z,25.57
2023-01-25T22:21:14.804Z,26.53
2023-01-25T22:23:42.345Z,23.53
2023-01-25T22:26:11.562Z,27.53
2023-01-25T22:28:47.622Z,24.90
2023-01-25T22:31:15.653Z,24.03
2023-01-25T22:33:43.625Z,27.30
2023-01-25T22:36:14.464Z,24.27
2023-01-25T22:38:41.929Z,25.43
2023-01-25T22:41:10.788Z,27.37
2023-01-25T22:43:38.474Z,23.90
2023-01-25T22:46:06.742Z,24.03
2023-01-25T22:48:34.896Z,24.13
2023-01-25T22:51:07.384Z,27.37
2023-01-25T22:53:35.288Z,25.40
2023-01-25T22:56:02.733Z,27.03
2023-01-25T22:58:30.212Z,27.40
2023-01-25T23:00:57.936Z,26.57
2023-01-25T23:03:25.506Z,24.13
2023-01-25T23:05:59.370Z,26.97
2023-01-25T23:08:27.068Z,26.53
2023-01-25T23:10:59.655Z,27.27
2023-01-25T23:13:27.428Z,26.70
2023-01-25T23:15:55.664Z,27.13
2023-01-25T23:18:42.163Z,23.53
2023-01-25T23:21:09.594Z,29.40
2023-01-25T23:23:37.060Z,27.17
2023-01-25T23:26:04.593Z,27.63
2023-01-25T23:28:32.479Z,26.40
2023-01-25T23:31:24.266Z,30.50
2023-01-25T23:33:55.958Z,23.83
2023-01-25T23:36:24.583Z,24.83
2023-01-25T23:38:52.350Z,27.97
2023-01-25T23:41:21.201Z,28.47
2023-01-25T23:43:49.430Z,28.07
2023-01-25T23:46:18.075Z,26.87
2023-01-25T23:48:46.410Z,26.20
2023-01-25T23:51:14.930Z,27.73
2023-01-25T23:53:42.693Z,25.73
2023-01-25T23:56:14.518Z,25.10
2023-01-25T23:58:42.037Z,27.93
